createdAt,value
2023-04-11T00:00:13.204Z,7.63
2023-04-11T00:02:40.524Z,7.54
2023-04-11T00:05:08.616Z,7.56
2023-04-11T00:07:36.120Z,7.59
2023-04-11T00:10:03.406Z,7.44
2023-04-11T00:12:31.004Z,7.44
2023-04-11T00:14:57.912Z,7.22
2023-04-11T00:17:25.059Z,6.99
2023-04-11T00:19:53.380Z,7.26
2023-04-11T00:22:20.705Z,7.30
2023-04-11T00:24:47.575Z,7.35
2023-04-11T00:27:16.017Z,7.28
2023-04-11T00:29:43.210Z,7.23
2023-04-11T00:32:10.286Z,6.95
2023-04-11T00:34:37.529Z,7.25
2023-04-11T00:37:04.690Z,6.94
2023-04-11T00:39:34.199Z,6.81
2023-04-11T00:42:08.913Z,7.04
2023-04-11T00:44:36.496Z,7.04
2023-04-11T00:47:07.275Z,7.16
2023-04-11T00:49:35.309Z,7.34
2023-04-11T00:52:03.136Z,7.19
2023-04-11T00:54:33.723Z,7.27
2023-04-11T00:57:05.777Z,7.36
2023-04-11T00:59:33.734Z,7.03
2023-04-11T01:02:01.759Z,7.39
2023-04-11T01:04:30.029Z,7.38
2023-04-11T01:07:04.275Z,7.29
2023-04-11T01:09:34.048Z,6.88
2023-04-11T01:12:03.012Z,7.23
2023-04-11T01:14:30.716Z,7.35
2023-04-11T01:16:58.781Z,7.27
2023-04-11T01:19:26.725Z,7.36
2023-04-11T01:21:56.536Z,7.40
2023-04-11T01:24:24.148Z,7.16
2023-04-11T01:26:52.118Z,7.21
2023-04-11T01:29:20.441Z,7.38
2023-04-11T01:31:47.417Z,7.18
2023-04-11T01:34:17.154Z,7.32
2023-04-11T01:36:44.968Z,7.14
2023-04-11T01:39:11.947Z,7.25
2023-04-11T01:41:40.850Z,7.32
2023-04-11T01:44:08.272Z,7.25
2023-04-11T01:46:36.518Z,7.42
2023-04-11T01:49:04.062Z,7.53
2023-04-11T01:51:32.251Z,7.38
2023-04-11T01:53:59.325Z,7.31
2023-04-11T01:56:26.512Z,7.32
2023-04-11T01:58:54.085Z,7.27
2023-04-11T02:01:21.717Z,7.38
2023-04-11T02:03:49.039Z,7.28
2023-04-11T02:06:16.910Z,7.42
2023-04-11T02:08:44.845Z,7.23
2023-04-11T02:11:11.958Z,7.32
2023-04-11T02:13:38.995Z,7.01
2023-04-11T02:16:15.278Z,7.20
2023-04-11T02:18:44.227Z,7.14
2023-04-11T02:21:12.135Z,7.11
2023-04-11T02:23:39.516Z,6.93
2023-04-11T02:26:06.592Z,7.10
2023-04-11T02:28:33.749Z,6.94
2023-04-11T02:31:01.024Z,7.14
2023-04-11T02:33:28.256Z,7.10
2023-04-11T02:35:55.726Z,6.95
2023-04-11T02:38:23.201Z,6.94
2023-04-11T02:40:51.557Z,7.11
2023-04-11T02:43:18.665Z,6.75
2023-04-11T02:45:45.809Z,7.18
2023-04-11T02:48:14.458Z,7.19
2023-04-11T02:50:44.785Z,7.14
2023-04-11T02:53:12.379Z,6.24
2023-04-11T02:55:46.840Z,6.98
2023-04-11T02:58:17.814Z,6.86
2023-04-11T03:00:49.512Z,7.02
2023-04-11T03:03:16.880Z,7.02
2023-04-11T03:05:46.672Z,7.07
2023-04-11T03:08:16.048Z,6.69
2023-04-11T03:10:49.823Z,6.88
2023-04-11T03:13:17.496Z,6.98
2023-04-11T03:15:45.181Z,6.96
2023-04-11T03:18:13.094Z,7.00
2023-04-11T03:20:43.654Z,6.58
2023-04-11T03:23:12.784Z,6.87
2023-04-11T03:25:40.605Z,6.82
2023-04-11T03:28:08.589Z,6.86
2023-04-11T03:30:35.787Z,6.78
2023-04-11T03:33:02.879Z,6.60
2023-04-11T03:35:31.755Z,6.83
2023-04-11T03:37:59.830Z,6.77
2023-04-11T03:40:27.407Z,6.85
2023-04-11T03:43:06.906Z,6.84
2023-04-11T03:45:36.533Z,6.72
2023-04-11T03:48:06.921Z,6.54
2023-04-11T03:50:59.570Z,6.74
2023-04-11T03:53:36.313Z,6.67
2023-04-11T03:56:17.211Z,6.66
2023-04-11T03:58:44.472Z,6.64
2023-04-11T04:01:11.922Z,6.49
2023-04-11T04:03:39.824Z,6.61
2023-04-11T04:06:10.810Z,6.75
2023-04-11T04:08:39.763Z,6.68
2023-04-11T04:11:07.251Z,6.57
2023-04-11T04:13:36.371Z,6.88
2023-04-11T04:16:12.908Z,6.58
2023-04-11T04:18:42.892Z,6.88
2023-04-11T04:21:11.068Z,6.67
2023-04-11T04:23:39.558Z,6.53
2023-04-11T04:26:25.208Z,6.57
2023-04-11T04:29:34.184Z,6.75
2023-04-11T04:32:11.824Z,6.66
2023-04-11T04:34:49.363Z,6.68
2023-04-11T04:37:25.008Z,6.61
2023-04-11T04:40:09.171Z,6.56
2023-04-11T04:42:45.136Z,6.64
2023-04-11T04:45:12.212Z,6.61
2023-04-11T04:47:40.513Z,6.41
2023-04-11T04:50:08.576Z,6.65
2023-04-11T04:52:35.540Z,6.62
2023-04-11T04:55:02.651Z,6.67
2023-04-11T04:57:32.315Z,6.70
2023-04-11T05:00:00.589Z,6.47
2023-04-11T05:02:30.913Z,6.74
2023-04-11T05:05:04.062Z,6.67
2023-04-11T05:07:32.943Z,6.79
2023-04-11T05:10:02.463Z,6.80
2023-04-11T05:12:30.704Z,6.88
2023-04-11T05:15:03.419Z,6.80
2023-04-11T05:17:33.047Z,6.94
2023-04-11T05:20:00.544Z,6.94
2023-04-11T05:22:28.229Z,7.16
2023-04-11T05:24:57.215Z,7.16
2023-04-11T05:27:24.319Z,7.07
2023-04-11T05:29:51.665Z,7.11
2023-04-11T05:32:19.650Z,7.25
2023-04-11T05:34:58.150Z,7.08
2023-04-11T05:37:40.165Z,7.02
2023-04-11T05:40:09.574Z,7.26
2023-04-11T05:42:36.785Z,7.32
2023-04-11T05:45:06.287Z,7.40
2023-04-11T05:47:33.739Z,7.26
2023-04-11T05:50:01.454Z,7.26
2023-04-11T05:52:29.040Z,7.55
2023-04-11T05:54:56.336Z,7.93
2023-04-11T05:57:23.886Z,7.53
2023-04-11T05:59:53.288Z,8.06
2023-04-11T06:02:20.774Z,8.06
2023-04-11T06:04:48.281Z,8.29
2023-04-11T06:07:15.827Z,8.21
2023-04-11T06:09:43.145Z,8.20
2023-04-11T06:12:10.658Z,8.36
2023-04-11T06:14:40.641Z,8.30
2023-04-11T06:17:08.034Z,8.46
2023-04-11T06:19:34.982Z,8.60
2023-04-11T06:22:02.030Z,8.64
2023-04-11T06:24:37.455Z,8.46
2023-04-11T06:27:04.766Z,9.01
2023-04-11T06:29:32.461Z,8.42
2023-04-11T06:31:59.604Z,9.02
2023-04-11T06:34:26.767Z,9.20
2023-04-11T06:36:54.066Z,9.06
2023-04-11T06:39:21.906Z,9.56
2023-04-11T06:41:49.852Z,9.41
2023-04-11T06:44:24.752Z,8.95
2023-04-11T06:46:51.924Z,9.31
2023-04-11T06:49:19.093Z,9.36
2023-04-11T06:51:47.348Z,9.13
2023-04-11T06:54:14.241Z,9.19
2023-04-11T06:56:41.287Z,9.16
2023-04-11T06:59:08.425Z,8.99
2023-04-11T07:01:39.540Z,9.24
2023-04-11T07:04:07.438Z,9.13
2023-04-11T07:06:35.990Z,8.95
2023-04-11T07:09:06.776Z,9.33
2023-04-11T07:11:33.928Z,9.38
2023-04-11T07:14:01.471Z,9.50
2023-04-11T07:16:28.725Z,9.07
2023-04-11T07:18:55.937Z,9.63
2023-04-11T07:21:23.194Z,9.81
2023-04-11T07:23:50.204Z,9.99
2023-04-11T07:26:18.189Z,10.08
2023-04-11T07:28:48.316Z,10.12
2023-04-11T07:31:21.678Z,10.32
2023-04-11T07:33:48.935Z,10.52
2023-04-11T07:36:16.467Z,10.62
2023-04-11T07:38:43.628Z,10.39
2023-04-11T07:41:10.544Z,10.64
2023-04-11T07:43:38.901Z,10.86
2023-04-11T07:46:06.909Z,11.04
2023-04-11T07:48:34.041Z,10.77
2023-04-11T07:51:01.862Z,10.83
2023-04-11T07:53:31.086Z,10.86
2023-04-11T07:55:58.468Z,10.85
2023-04-11T07:58:25.624Z,11.01
2023-04-11T08:00:53.714Z,11.04
2023-04-11T08:03:21.200Z,11.32
2023-04-11T08:05:48.395Z,11.71
2023-04-11T08:08:19.007Z,11.88
2023-04-11T08:10:46.132Z,11.97
2023-04-11T08:13:13.398Z,11.76
2023-04-11T08:15:40.568Z,11.43
2023-04-11T08:18:07.669Z,11.48
2023-04-11T08:20:34.964Z,11.52
2023-04-11T08:23:06.237Z,11.68
2023-04-11T08:25:33.570Z,11.88
2023-04-11T08:28:00.646Z,11.83
2023-04-11T08:30:27.733Z,11.68
2023-04-11T08:32:54.855Z,11.73
2023-04-11T08:35:22.155Z,11.64
2023-04-11T08:37:50.652Z,11.66
2023-04-11T08:40:18.216Z,11.49
2023-04-11T08:42:46.106Z,11.60
2023-04-11T08:45:13.458Z,11.64
2023-04-11T08:47:41.985Z,11.80
2023-04-11T08:50:11.173Z,11.81
2023-04-11T08:52:40.181Z,11.88
2023-04-11T08:55:07.497Z,11.96
2023-04-11T08:57:35.003Z,11.94
2023-04-11T09:00:19.041Z,12.24
2023-04-11T09:03:04.242Z,12.21
2023-04-11T09:05:35.544Z,12.07
2023-04-11T09:08:07.683Z,12.12
2023-04-11T09:10:35.912Z,12.37
2023-04-11T09:13:21.187Z,12.72
2023-04-11T09:15:48.624Z,13.03
2023-04-11T09:18:33.009Z,13.05
2023-04-11T09:21:01.835Z,13.26
2023-04-11T09:23:29.242Z,13.10
2023-04-11T09:25:57.220Z,13.24
2023-04-11T09:28:24.798Z,13.31
2023-04-11T09:30:53.612Z,13.62
2023-04-11T09:33:23.187Z,13.70
2023-04-11T09:35:54.840Z,13.62
2023-04-11T09:38:36.728Z,13.53
2023-04-11T09:41:04.605Z,13.40
2023-04-11T09:43:55.707Z,13.40
2023-04-11T09:46:23.223Z,13.18
2023-04-11T09:48:51.981Z,12.81
2023-04-11T09:51:35.059Z,12.71
2023-04-11T09:54:04.501Z,12.61
2023-04-11T09:56:36.336Z,12.51
2023-04-11T09:59:04.437Z,12.48
2023-04-11T10:01:32.319Z,12.63
2023-04-11T10:04:01.062Z,12.52
2023-04-11T10:06:39.152Z,12.61
2023-04-11T10:09:11.767Z,12.71
2023-04-11T10:11:44.176Z,12.75
2023-04-11T10:14:39.463Z,13.23
2023-04-11T10:17:22.698Z,12.71
2023-04-11T10:19:56.667Z,12.54
2023-04-11T10:22:46.579Z,13.19
2023-04-11T10:25:17.979Z,13.62
2023-04-11T10:27:53.564Z,13.54
2023-04-11T10:30:43.697Z,13.52
2023-04-11T10:33:19.536Z,13.57
2023-04-11T10:36:10.158Z,13.77
2023-04-11T10:38:43.753Z,14.02
2023-04-11T10:41:22.918Z,14.01
2023-04-11T10:43:50.214Z,13.79
2023-04-11T10:46:26.733Z,13.53
2023-04-11T10:49:04.805Z,13.41
2023-04-11T10:51:33.362Z,13.62
2023-04-11T10:54:00.932Z,13.75
2023-04-11T10:56:40.909Z,13.94
2023-04-11T10:59:10.754Z,14.18
2023-04-11T11:04:11.073Z,14.58
2023-04-11T11:06:47.212Z,14.46
2023-04-11T11:09:23.560Z,15.00
2023-04-11T11:12:16.191Z,14.80
2023-04-11T11:14:45.803Z,14.52
2023-04-11T11:17:14.495Z,14.21
2023-04-11T11:19:45.897Z,13.71
2023-04-11T11:22:17.413Z,13.57
2023-04-11T11:24:44.352Z,13.66
2023-04-11T11:27:22.715Z,13.77
2023-04-11T11:29:50.974Z,13.96
2023-04-11T11:32:24.898Z,14.13
2023-04-11T11:34:53.462Z,14.32
2023-04-11T11:37:21.537Z,14.54
2023-04-11T11:39:49.556Z,14.52
2023-04-11T11:42:17.123Z,14.79
2023-04-11T11:44:44.317Z,14.75
2023-04-11T11:47:15.584Z,14.86
2023-04-11T11:49:44.608Z,15.04
2023-04-11T11:52:12.626Z,15.35
2023-04-11T11:54:47.386Z,15.60
2023-04-11T11:57:24.434Z,16.04
2023-04-11T11:59:55.097Z,16.19
2023-04-11T12:02:24.167Z,15.99
2023-04-11T12:05:00.264Z,15.85
2023-04-11T12:07:32.739Z,15.84
2023-04-11T12:10:01.324Z,15.88
2023-04-11T12:12:38.612Z,15.61
2023-04-11T12:15:16.863Z,14.99
2023-04-11T12:17:47.759Z,14.83
2023-04-11T12:20:17.642Z,15.23
2023-04-11T12:22:44.615Z,15.44
2023-04-11T12:25:14.176Z,15.36
2023-04-11T12:27:43.307Z,15.33
2023-04-11T12:30:13.469Z,15.46
2023-04-11T12:32:41.395Z,15.47
2023-04-11T12:35:08.842Z,15.10
2023-04-11T12:37:35.974Z,15.39
2023-04-11T12:40:07.209Z,15.17
2023-04-11T12:42:36.860Z,14.19
2023-04-11T12:45:11.045Z,14.77
2023-04-11T12:47:38.321Z,14.75
2023-04-11T12:50:07.264Z,15.31
2023-04-11T12:52:35.189Z,15.46
2023-04-11T12:55:02.614Z,15.27
2023-04-11T12:57:30.875Z,15.90
2023-04-11T12:59:58.037Z,16.01
2023-04-11T13:02:25.503Z,15.87
2023-04-11T13:04:55.710Z,15.61
2023-04-11T13:07:23.328Z,15.93
2023-04-11T13:09:50.519Z,15.82
2023-04-11T13:12:17.790Z,15.59
2023-04-11T13:14:44.940Z,15.61
2023-04-11T13:17:12.078Z,15.87
2023-04-11T13:19:39.183Z,15.66
2023-04-11T13:22:06.638Z,15.56
2023-04-11T13:24:33.749Z,15.20
2023-04-11T13:27:01.211Z,14.98
2023-04-11T13:29:28.348Z,14.71
2023-04-11T13:31:55.888Z,14.46
2023-04-11T13:34:23.177Z,14.34
2023-04-11T13:36:51.428Z,14.15
2023-04-11T13:39:18.414Z,13.89
2023-04-11T13:41:46.008Z,13.88
2023-04-11T13:44:13.028Z,13.79
2023-04-11T13:46:41.501Z,13.72
2023-04-11T13:49:08.741Z,13.78
2023-04-11T13:51:35.834Z,13.85
2023-04-11T13:54:03.025Z,14.16
2023-04-11T13:56:30.092Z,14.31
2023-04-11T13:58:57.532Z,14.37
2023-04-11T14:01:24.755Z,13.81
2023-04-11T14:03:52.370Z,14.18
2023-04-11T14:06:19.899Z,14.37
2023-04-11T14:08:48.646Z,13.64
2023-04-11T14:11:16.616Z,14.17
2023-04-11T14:13:43.669Z,14.15
2023-04-11T14:16:11.437Z,14.31
2023-04-11T14:18:38.409Z,14.35
2023-04-11T14:21:23.969Z,14.38
2023-04-11T14:23:51.172Z,14.57
2023-04-11T14:26:18.969Z,14.22
2023-04-11T14:28:46.158Z,14.14
2023-04-11T14:31:17.812Z,14.41
2023-04-11T14:33:44.918Z,14.26
2023-04-11T14:36:11.909Z,14.23
2023-04-11T14:38:39.377Z,13.88
2023-04-11T14:41:07.242Z,14.06
2023-04-11T14:43:34.547Z,14.13
2023-04-11T14:46:01.672Z,14.01
2023-04-11T14:48:28.971Z,13.81
2023-04-11T14:50:56.302Z,13.56
2023-04-11T14:53:23.272Z,13.76
2023-04-11T14:55:50.188Z,13.66
2023-04-11T14:58:17.652Z,13.89
2023-04-11T15:00:44.844Z,13.78
2023-04-11T15:03:12.441Z,13.45
2023-04-11T15:05:40.069Z,13.54
2023-04-11T15:08:08.220Z,13.51
2023-04-11T15:10:35.132Z,13.59
2023-04-11T15:13:02.182Z,13.72
2023-04-11T15:15:29.200Z,13.66
2023-04-11T15:18:19.855Z,13.52
2023-04-11T15:20:46.956Z,13.52
2023-04-11T15:23:13.948Z,13.63
2023-04-11T15:25:40.957Z,13.59
2023-04-11T15:28:08.726Z,13.59
2023-04-11T15:30:45.429Z,13.41
2023-04-11T15:33:12.883Z,13.45
2023-04-11T15:35:43.676Z,13.32
2023-04-11T15:38:12.456Z,13.41
2023-04-11T15:40:39.838Z,13.76
2023-04-11T15:43:08.677Z,13.73
2023-04-11T15:45:37.303Z,13.30
2023-04-11T15:48:04.540Z,13.33
2023-04-11T15:50:32.374Z,13.20
2023-04-11T15:52:59.632Z,13.37
2023-04-11T15:55:28.038Z,14.36
2023-04-11T15:57:55.956Z,15.22
2023-04-11T16:00:23.197Z,14.57
2023-04-11T16:02:50.848Z,14.16
2023-04-11T16:05:20.998Z,13.77
2023-04-11T16:07:48.467Z,13.43
2023-04-11T16:10:15.681Z,13.20
2023-04-11T16:12:42.796Z,12.91
2023-04-11T16:15:10.052Z,12.92
2023-04-11T16:17:37.070Z,12.42
2023-04-11T16:20:08.835Z,12.54
2023-04-11T16:22:37.599Z,12.45
2023-04-11T16:25:08.321Z,12.38
2023-04-11T16:27:35.558Z,12.38
2023-04-11T16:30:09.459Z,12.20
2023-04-11T16:32:36.673Z,11.98
2023-04-11T16:35:03.857Z,11.92
2023-04-11T16:37:30.919Z,11.90
2023-04-11T16:39:58.094Z,11.82
2023-04-11T16:42:25.288Z,11.82
2023-04-11T16:44:52.441Z,11.76
2023-04-11T16:47:21.080Z,11.60
2023-04-11T16:49:48.251Z,11.58
2023-04-11T16:52:15.526Z,11.46
2023-04-11T16:54:42.876Z,11.02
2023-04-11T16:57:09.935Z,11.23
2023-04-11T16:59:37.195Z,11.18
2023-04-11T17:02:04.226Z,11.28
2023-04-11T17:04:31.577Z,11.27
2023-04-11T17:06:58.741Z,11.24
2023-04-11T17:09:27.083Z,11.18
2023-04-11T17:11:54.755Z,11.20
2023-04-11T17:14:22.085Z,11.20
2023-04-11T17:16:49.166Z,11.28
2023-04-11T17:19:16.263Z,11.09
2023-04-11T17:21:43.332Z,11.03
2023-04-11T17:24:10.419Z,11.17
2023-04-11T17:26:37.657Z,11.16
2023-04-11T17:29:06.661Z,10.88
2023-04-11T17:31:34.085Z,10.61
2023-04-11T17:34:02.062Z,11.07
2023-04-11T17:36:29.190Z,10.78
2023-04-11T17:38:56.304Z,10.69
2023-04-11T17:41:23.701Z,10.96
2023-04-11T17:43:50.788Z,10.89
2023-04-11T17:46:18.448Z,11.01
2023-04-11T17:48:45.470Z,10.91
2023-04-11T17:51:13.747Z,11.00
2023-04-11T17:53:41.350Z,10.70
2023-04-11T17:56:15.620Z,10.85
2023-04-11T17:58:44.925Z,10.77
2023-04-11T18:01:12.491Z,10.51
2023-04-11T18:03:40.452Z,10.25
2023-04-11T18:06:08.022Z,10.16
2023-04-11T18:08:49.879Z,10.83
2023-04-11T18:11:19.379Z,10.83
2023-04-11T18:13:49.451Z,10.70
2023-04-11T18:16:17.731Z,10.67
2023-04-11T18:18:46.586Z,10.62
2023-04-11T18:21:14.521Z,10.76
2023-04-11T18:23:41.756Z,10.64
2023-04-11T18:26:09.048Z,10.80
2023-04-11T18:28:36.573Z,10.67
2023-04-11T18:31:04.508Z,10.62
2023-04-11T18:33:34.533Z,10.68
2023-04-11T18:36:03.283Z,10.57
2023-04-11T18:38:30.494Z,10.64
2023-04-11T18:41:03.911Z,10.60
2023-04-11T18:43:33.857Z,10.54
2023-04-11T18:46:01.886Z,10.41
2023-04-11T18:48:29.272Z,10.66
2023-04-11T18:51:00.847Z,10.62
2023-04-11T18:53:30.153Z,10.47
2023-04-11T18:55:58.040Z,10.40
2023-04-11T18:58:27.007Z,10.63
2023-04-11T19:00:56.889Z,10.58
2023-04-11T19:03:24.355Z,10.60
2023-04-11T19:05:51.928Z,10.57
2023-04-11T19:08:19.092Z,10.40
2023-04-11T19:10:46.218Z,10.33
2023-04-11T19:13:13.244Z,10.47
2023-04-11T19:15:41.589Z,10.49
2023-04-11T19:18:10.538Z,10.14
2023-04-11T19:20:39.023Z,10.43
2023-04-11T19:23:06.607Z,10.31
2023-04-11T19:25:36.153Z,10.50
2023-04-11T19:28:03.428Z,10.52
2023-04-11T19:30:30.539Z,10.48
2023-04-11T19:32:58.850Z,10.23
2023-04-11T19:35:26.687Z,10.30
2023-04-11T19:37:54.933Z,10.30
2023-04-11T19:40:25.139Z,10.05
2023-04-11T19:42:52.456Z,10.06
2023-04-11T19:45:19.722Z,10.22
2023-04-11T19:47:46.882Z,10.11
2023-04-11T19:50:14.563Z,10.09
2023-04-11T19:52:43.308Z,10.05
2023-04-11T19:55:13.192Z,10.03
2023-04-11T19:57:41.223Z,9.47
2023-04-11T20:00:13.977Z,9.90
2023-04-11T20:02:46.413Z,9.76
2023-04-11T20:05:16.074Z,9.59
2023-04-11T20:07:44.035Z,9.79
2023-04-11T20:10:12.142Z,9.73
2023-04-11T20:12:40.052Z,9.69
2023-04-11T20:15:08.498Z,9.58
2023-04-11T20:17:35.763Z,9.60
2023-04-11T20:20:06.502Z,9.46
2023-04-11T20:22:33.797Z,9.52
2023-04-11T20:25:01.123Z,9.50
2023-04-11T20:27:29.759Z,9.00
2023-04-11T20:29:57.316Z,9.33
2023-04-11T20:32:24.567Z,9.41
2023-04-11T20:34:51.798Z,9.40
2023-04-11T20:37:19.730Z,9.00
2023-04-11T20:39:51.683Z,8.61
2023-04-11T20:42:20.704Z,8.52
2023-04-11T20:44:47.841Z,9.15
2023-04-11T20:47:15.174Z,9.19
2023-04-11T20:49:45.817Z,9.09
2023-04-11T20:52:13.366Z,9.22
2023-04-11T20:54:41.152Z,9.19
2023-04-11T20:57:08.324Z,9.20
2023-04-11T20:59:37.071Z,9.17
2023-04-11T21:02:04.202Z,9.15
2023-04-11T21:04:31.312Z,9.20
2023-04-11T21:06:58.792Z,9.21
2023-04-11T21:09:25.973Z,9.14
2023-04-11T21:11:53.021Z,9.06
2023-04-11T21:14:20.012Z,9.23
2023-04-11T21:16:47.097Z,9.22
2023-04-11T21:19:14.079Z,9.16
2023-04-11T21:21:41.105Z,9.16
2023-04-11T21:24:09.579Z,9.09
2023-04-11T21:26:36.952Z,8.85
2023-04-11T21:29:03.920Z,9.29
2023-04-11T21:31:31.029Z,9.17
2023-04-11T21:33:58.738Z,9.19
2023-04-11T21:36:26.628Z,9.10
2023-04-11T21:38:53.803Z,9.25
2023-04-11T21:41:21.316Z,9.24
2023-04-11T21:43:48.517Z,9.20
2023-04-11T21:46:15.572Z,9.35
2023-04-11T21:48:43.208Z,9.36
2023-04-11T21:51:10.855Z,9.39
2023-04-11T21:53:38.022Z,9.36
2023-04-11T21:56:07.584Z,8.78
2023-04-11T21:58:35.099Z,9.46
2023-04-11T22:01:03.116Z,9.46
2023-04-11T22:03:30.689Z,9.34
2023-04-11T22:05:58.834Z,9.23
2023-04-11T22:08:29.391Z,9.35
2023-04-11T22:10:56.692Z,9.22
2023-04-11T22:13:24.010Z,9.25
2023-04-11T22:16:10.439Z,9.34
2023-04-11T22:18:49.893Z,9.19
2023-04-11T22:21:20.213Z,9.33
2023-04-11T22:23:58.240Z,9.25
2023-04-11T22:26:29.742Z,9.15
2023-04-11T22:29:02.030Z,8.72
2023-04-11T22:31:30.631Z,9.10
2023-04-11T22:33:58.158Z,9.09
2023-04-11T22:36:25.488Z,9.18
2023-04-11T22:38:53.085Z,9.02
2023-04-11T22:54:57.227Z,9.43
2023-04-11T22:57:24.456Z,9.58
2023-04-11T22:59:52.428Z,9.50
2023-04-11T23:02:19.530Z,9.39
2023-04-11T23:04:48.879Z,9.40
2023-04-11T23:07:16.992Z,9.41
2023-04-11T23:09:44.983Z,9.33
2023-04-11T23:12:12.219Z,9.22
2023-04-11T23:14:39.615Z,9.26
2023-04-11T23:17:06.690Z,9.22
2023-04-11T23:19:34.185Z,9.13
2023-04-11T23:22:01.251Z,9.13
2023-04-11T23:24:29.066Z,8.88
2023-04-11T23:26:56.951Z,9.00
2023-04-11T23:29:24.056Z,9.06
2023-04-11T23:31:51.620Z,9.12
2023-04-11T23:34:18.623Z,8.80
2023-04-11T23:36:46.050Z,8.69
2023-04-11T23:39:12.941Z,8.81
2023-04-11T23:41:40.320Z,8.97
2023-04-11T23:44:07.282Z,8.91
2023-04-11T23:46:34.443Z,8.98
2023-04-11T23:49:01.504Z,8.81
2023-04-11T23:51:28.444Z,8.93
2023-04-11T23:53:56.291Z,8.89
2023-04-11T23:56:23.830Z,8.95
2023-04-11T23:58:51.212Z,8.93
